createdAt,value
2018-08-31T00:00:07.749Z,0.00
2018-08-31T00:01:07.788Z,0.00
2018-08-31T00:02:07.734Z,0.00
2018-08-31T00:03:07.717Z,0.00
2018-08-31T00:04:07.705Z,0.00
2018-08-31T00:05:07.694Z,0.00
2018-08-31T00:06:07.697Z,0.00
2018-08-31T00:07:07.710Z,0.00
2018-08-31T00:08:07.661Z,0.00
2018-08-31T00:09:07.654Z,0.00
2018-08-31T00:10:07.639Z,0.00
2018-08-31T00:11:07.641Z,0.00
2018-08-31T00:12:07.619Z,0.00
2018-08-31T00:13:07.636Z,0.00
2018-08-31T00:14:07.596Z,0.00
2018-08-31T00:15:07.586Z,0.00
2018-08-31T00:16:07.591Z,0.00
2018-08-31T00:17:07.564Z,0.00
2018-08-31T00:18:07.555Z,0.00
2018-08-31T00:19:07.573Z,0.00
2018-08-31T00:20:07.532Z,0.00
2018-08-31T00:21:07.535Z,0.00
2018-08-31T00:22:07.511Z,0.00
2018-08-31T00:23:07.502Z,0.00
2018-08-31T00:24:07.490Z,0.00
2018-08-31T00:25:07.521Z,0.00
2018-08-31T00:26:07.484Z,0.00
2018-08-31T00:27:07.455Z,0.00
2018-08-31T00:28:07.452Z,0.00
2018-08-31T00:29:07.436Z,0.00
2018-08-31T00:30:07.425Z,0.00
2018-08-31T00:31:07.467Z,0.00
2018-08-31T00:32:07.408Z,0.00
2018-08-31T00:33:07.395Z,0.00
2018-08-31T00:34:07.384Z,0.00
2018-08-31T00:35:07.371Z,0.00
2018-08-31T00:36:07.366Z,0.00
2018-08-31T00:37:07.396Z,0.00
2018-08-31T00:38:07.339Z,0.00
2018-08-31T00:39:07.330Z,0.00
2018-08-31T00:40:07.319Z,0.00
2018-08-31T00:41:07.307Z,0.00
2018-08-31T00:42:07.316Z,0.00
2018-08-31T00:43:07.303Z,0.00
2018-08-31T00:44:07.277Z,0.00
2018-08-31T00:45:07.267Z,0.00
2018-08-31T00:46:07.258Z,0.00
2018-08-31T00:47:07.256Z,0.00
2018-08-31T00:48:07.234Z,0.00
2018-08-31T00:49:07.260Z,0.00
2018-08-31T00:50:07.214Z,0.00
2018-08-31T00:51:07.200Z,0.00
2018-08-31T00:52:07.203Z,0.00
2018-08-31T00:53:07.186Z,0.00
2018-08-31T00:54:07.169Z,0.00
2018-08-31T00:55:07.196Z,0.00
2018-08-31T00:56:07.148Z,0.00
2018-08-31T00:57:07.151Z,0.00
2018-08-31T00:58:07.126Z,0.00
2018-08-31T00:59:07.115Z,0.00
2018-08-31T01:00:07.105Z,0.00
2018-08-31T01:01:07.127Z,0.00
2018-08-31T01:02:07.100Z,0.00
2018-08-31T01:03:07.078Z,0.00
2018-08-31T01:04:07.064Z,0.00
2018-08-31T01:05:07.052Z,0.00
2018-08-31T01:06:07.041Z,0.00
2018-08-31T01:07:07.091Z,0.00
2018-08-31T01:08:07.023Z,0.00
2018-08-31T01:09:07.653Z,0.00
2018-08-31T01:10:06.999Z,0.00
2018-08-31T01:11:06.987Z,0.00
2018-08-31T01:12:07.001Z,0.00
2018-08-31T01:13:06.989Z,0.00
2018-08-31T01:14:06.955Z,0.00
2018-08-31T01:15:06.948Z,0.00
2018-08-31T01:16:06.934Z,0.00
2018-08-31T01:17:06.924Z,0.00
2018-08-31T01:18:06.927Z,0.00
2018-08-31T01:19:06.942Z,0.00
2018-08-31T01:20:06.892Z,0.00
2018-08-31T01:21:06.881Z,0.00
2018-08-31T01:22:06.870Z,0.00
2018-08-31T01:23:06.872Z,0.00
2018-08-31T01:24:06.851Z,0.00
2018-08-31T01:25:06.876Z,0.00
2018-08-31T01:26:06.828Z,0.00
2018-08-31T01:27:06.817Z,0.00
2018-08-31T01:28:06.821Z,0.00
2018-08-31T01:29:06.796Z,0.00
2018-08-31T01:30:06.786Z,0.00
2018-08-31T01:31:06.824Z,0.00
2018-08-31T01:32:06.764Z,0.00
2018-08-31T01:33:06.770Z,0.00
2018-08-31T01:34:06.743Z,0.00
2018-08-31T01:35:06.734Z,0.00
2018-08-31T01:36:06.722Z,0.00
2018-08-31T01:37:06.742Z,0.00
2018-08-31T01:38:06.717Z,0.00
2018-08-31T01:39:06.694Z,0.00
2018-08-31T01:40:06.685Z,0.00
2018-08-31T01:41:06.669Z,0.00
2018-08-31T01:42:06.659Z,0.00
2018-08-31T01:43:06.701Z,0.00
2018-08-31T01:44:06.636Z,0.00
2018-08-31T01:45:06.627Z,0.00
2018-08-31T01:46:06.615Z,0.00
2018-08-31T01:47:06.604Z,0.00
2018-08-31T01:48:06.609Z,0.00
2018-08-31T01:49:06.610Z,0.00
2018-08-31T01:50:06.573Z,0.00
2018-08-31T01:51:06.565Z,0.00
2018-08-31T01:52:06.550Z,0.00
2018-08-31T01:53:06.564Z,0.00
2018-08-31T01:54:06.529Z,0.00
2018-08-31T01:55:06.576Z,0.00
2018-08-31T01:56:06.508Z,0.00
2018-08-31T01:57:06.498Z,0.00
2018-08-31T01:58:06.487Z,0.00
2018-08-31T01:59:06.491Z,0.00
2018-08-31T02:00:06.468Z,0.00
2018-08-31T02:01:06.492Z,0.00
2018-08-31T02:02:06.449Z,0.00
2018-08-31T02:03:06.435Z,0.00
2018-08-31T02:04:06.552Z,0.00
2018-08-31T02:05:06.412Z,0.00
2018-08-31T02:06:06.403Z,0.00
2018-08-31T02:07:06.409Z,0.00
2018-08-31T02:08:06.381Z,0.00
2018-08-31T02:09:06.660Z,0.00
2018-08-31T02:10:06.360Z,0.00
2018-08-31T02:11:06.349Z,0.00
2018-08-31T02:12:06.341Z,0.00
2018-08-31T02:13:06.345Z,0.00
2018-08-31T02:14:06.331Z,0.00
2018-08-31T02:15:06.306Z,0.00
2018-08-31T02:16:06.296Z,0.00
2018-08-31T02:17:06.292Z,0.00
2018-08-31T02:18:06.276Z,0.00
2018-08-31T02:19:06.343Z,0.00
2018-08-31T02:20:06.253Z,0.00
2018-08-31T02:21:06.243Z,0.00
2018-08-31T02:22:06.232Z,0.00
2018-08-31T02:23:06.222Z,0.00
2018-08-31T02:24:06.256Z,0.00
2018-08-31T02:25:06.204Z,0.00
2018-08-31T02:26:06.191Z,0.00
2018-08-31T02:27:06.206Z,0.00
2018-08-31T02:28:06.170Z,0.00
2018-08-31T02:29:06.179Z,0.00
2018-08-31T02:30:06.185Z,0.00
2018-08-31T02:31:06.138Z,0.00
2018-08-31T02:32:06.125Z,0.00
2018-08-31T02:33:06.116Z,0.00
2018-08-31T02:34:06.122Z,0.00
2018-08-31T02:35:06.131Z,0.00
2018-08-31T02:36:06.082Z,0.00
2018-08-31T02:37:06.071Z,0.00
2018-08-31T02:38:06.062Z,0.00
2018-08-31T02:39:06.074Z,0.00
2018-08-31T02:40:06.041Z,0.00
2018-08-31T02:41:06.063Z,0.00
2018-08-31T02:42:06.020Z,0.00
2018-08-31T02:43:06.006Z,0.00
2018-08-31T02:44:06.006Z,0.00
2018-08-31T02:45:05.984Z,0.00
2018-08-31T02:46:05.978Z,0.00
2018-08-31T02:47:06.022Z,0.00
2018-08-31T02:48:05.951Z,0.00
2018-08-31T02:49:05.968Z,0.00
2018-08-31T02:50:05.930Z,0.00
2018-08-31T02:51:05.918Z,0.00
2018-08-31T02:52:05.907Z,0.00
2018-08-31T02:53:05.937Z,0.00
2018-08-31T02:54:05.883Z,0.00
2018-08-31T02:55:05.886Z,0.00
2018-08-31T02:56:05.862Z,0.00
2018-08-31T02:57:05.850Z,0.00
2018-08-31T02:58:05.839Z,0.00
2018-08-31T02:59:05.877Z,0.00
2018-08-31T03:00:05.830Z,0.00
2018-08-31T03:01:05.808Z,0.00
2018-08-31T03:02:05.797Z,0.00
2018-08-31T03:03:05.786Z,0.00
2018-08-31T03:04:05.773Z,0.00
2018-08-31T03:05:05.801Z,0.00
2018-08-31T03:06:05.751Z,0.00
2018-08-31T03:07:05.741Z,0.00
2018-08-31T03:08:05.729Z,0.00
2018-08-31T03:09:05.719Z,0.00
2018-08-31T03:10:05.725Z,0.00
2018-08-31T03:11:05.725Z,0.00
2018-08-31T03:12:05.690Z,0.00
2018-08-31T03:13:05.677Z,0.00
2018-08-31T03:14:05.665Z,0.00
2018-08-31T03:15:05.670Z,0.00
2018-08-31T03:16:05.643Z,0.00
2018-08-31T03:17:05.666Z,0.00
2018-08-31T03:18:05.621Z,0.00
2018-08-31T03:19:05.611Z,0.00
2018-08-31T03:20:05.613Z,0.00
2018-08-31T03:21:05.611Z,0.00
2018-08-31T03:22:05.577Z,0.00
2018-08-31T03:23:05.601Z,0.00
2018-08-31T03:24:05.563Z,0.00
2018-08-31T03:25:05.561Z,0.00
2018-08-31T03:26:05.537Z,0.00
2018-08-31T03:27:05.526Z,0.00
2018-08-31T03:28:05.515Z,0.00
2018-08-31T03:29:05.537Z,0.00
2018-08-31T03:30:05.508Z,0.00
2018-08-31T03:31:05.492Z,0.00
2018-08-31T03:32:05.474Z,0.00
2018-08-31T03:33:05.462Z,0.00
2018-08-31T03:34:05.462Z,0.00
2018-08-31T03:35:05.474Z,0.00
2018-08-31T03:36:05.455Z,0.00
2018-08-31T03:37:05.557Z,0.00
2018-08-31T03:38:05.413Z,0.00
2018-08-31T03:39:05.396Z,0.00
2018-08-31T03:40:05.404Z,0.00
2018-08-31T03:41:05.376Z,0.00
2018-08-31T03:42:05.399Z,0.00
2018-08-31T03:43:05.357Z,0.00
2018-08-31T03:44:05.340Z,0.00
2018-08-31T03:45:05.349Z,0.00
2018-08-31T03:46:05.319Z,0.00
2018-08-31T03:47:05.308Z,0.00
2018-08-31T03:48:05.345Z,0.00
2018-08-31T03:49:05.286Z,0.00
2018-08-31T03:50:05.305Z,0.00
2018-08-31T03:51:05.262Z,0.00
2018-08-31T03:52:05.253Z,0.00
2018-08-31T03:53:05.257Z,0.00
2018-08-31T03:54:05.232Z,0.00
2018-08-31T03:55:05.223Z,0.00
2018-08-31T03:56:05.227Z,0.00
2018-08-31T03:57:05.201Z,0.00
2018-08-31T03:58:05.188Z,0.00
2018-08-31T03:59:05.221Z,0.00
2018-08-31T04:00:05.166Z,0.00
2018-08-31T04:01:05.168Z,0.00
2018-08-31T04:02:05.142Z,0.00
2018-08-31T04:03:05.135Z,0.00
2018-08-31T04:04:05.120Z,0.00
2018-08-31T04:05:05.145Z,0.00
2018-08-31T04:06:05.114Z,0.00
2018-08-31T04:07:05.086Z,0.00
2018-08-31T04:08:05.078Z,0.00
2018-08-31T04:09:05.071Z,0.00
2018-08-31T04:10:05.056Z,0.00
2018-08-31T04:11:05.111Z,0.00
2018-08-31T04:12:05.033Z,0.00
2018-08-31T04:13:05.023Z,0.00
2018-08-31T04:14:05.010Z,0.00
2018-08-31T04:15:05.076Z,0.00
2018-08-31T04:16:05.004Z,0.00
2018-08-31T04:17:05.011Z,4.00
2018-08-31T04:18:04.968Z,4.00
2018-08-31T04:19:04.958Z,4.00
2018-08-31T04:20:04.943Z,0.00
2018-08-31T04:21:04.949Z,4.00
2018-08-31T04:22:04.927Z,4.00
2018-08-31T04:23:04.947Z,4.00
2018-08-31T04:24:04.900Z,8.00
2018-08-31T04:25:04.892Z,4.00
2018-08-31T04:26:04.896Z,8.00
2018-08-31T04:27:04.865Z,8.00
2018-08-31T04:28:04.862Z,12.00
2018-08-31T04:29:04.876Z,12.00
2018-08-31T04:30:04.835Z,16.00
2018-08-31T04:31:04.838Z,16.00
2018-08-31T04:32:04.813Z,20.00
2018-08-31T04:33:04.802Z,24.00
2018-08-31T04:34:04.803Z,28.00
2018-08-31T04:35:04.807Z,32.00
2018-08-31T04:36:04.787Z,32.00
2018-08-31T04:37:04.756Z,36.00
2018-08-31T04:38:04.748Z,40.00
2018-08-31T04:39:04.736Z,44.00
2018-08-31T04:40:04.726Z,52.00
2018-08-31T04:41:04.772Z,60.00
2018-08-31T04:42:04.703Z,68.00
2018-08-31T04:43:04.691Z,80.00
2018-08-31T04:44:04.680Z,96.00
2018-08-31T04:45:04.669Z,108.00
2018-08-31T04:46:04.671Z,116.00
2018-08-31T04:47:04.682Z,128.00
2018-08-31T04:48:04.635Z,136.00
2018-08-31T04:49:04.624Z,144.00
2018-08-31T04:50:04.612Z,152.00
2018-08-31T04:51:04.614Z,164.00
2018-08-31T04:52:04.590Z,180.00
2018-08-31T04:53:04.614Z,212.00
2018-08-31T04:54:04.569Z,244.00
2018-08-31T04:55:04.557Z,276.00
2018-08-31T04:56:04.559Z,304.00
2018-08-31T04:57:04.539Z,324.00
2018-08-31T04:58:04.529Z,328.00
2018-08-31T04:59:04.551Z,320.00
2018-08-31T05:00:04.503Z,324.00
2018-08-31T05:01:04.516Z,332.00
2018-08-31T05:02:04.480Z,368.00
2018-08-31T05:03:04.469Z,416.00
2018-08-31T05:04:04.464Z,472.00
2018-08-31T05:05:04.490Z,524.00
2018-08-31T05:06:04.461Z,560.00
2018-08-31T05:07:04.441Z,596.00
2018-08-31T05:08:04.420Z,636.00
2018-08-31T05:09:04.409Z,668.00
2018-08-31T05:10:04.393Z,700.00
2018-08-31T05:11:04.383Z,736.00
2018-08-31T05:12:04.422Z,772.00
2018-08-31T05:13:04.363Z,824.00
2018-08-31T05:14:04.354Z,892.00
2018-08-31T05:15:04.342Z,956.00
2018-08-31T05:16:04.392Z,1020.00
2018-08-31T05:17:04.332Z,1076.00
2018-08-31T05:18:04.338Z,1140.00
2018-08-31T05:19:04.297Z,1204.00
2018-08-31T05:20:04.287Z,1268.00
2018-08-31T05:21:04.276Z,1332.00
2018-08-31T05:22:04.278Z,1384.00
2018-08-31T05:23:04.265Z,1428.00
2018-08-31T05:24:04.281Z,1480.00
2018-08-31T05:25:04.233Z,1548.00
2018-08-31T05:26:04.222Z,1628.00
2018-08-31T05:27:04.227Z,1712.00
2018-08-31T05:28:04.202Z,1788.00
2018-08-31T05:29:04.193Z,1852.00
2018-08-31T05:30:04.213Z,1916.00
2018-08-31T05:31:04.172Z,1936.00
2018-08-31T05:32:04.177Z,1932.00
2018-08-31T05:33:04.149Z,1908.00
2018-08-31T05:34:04.140Z,1912.00
2018-08-31T05:35:04.126Z,1940.00
2018-08-31T05:36:04.143Z,1984.00
2018-08-31T05:37:04.118Z,2044.00
2018-08-31T05:38:04.096Z,2112.00
2018-08-31T05:39:04.085Z,2176.00
2018-08-31T05:40:04.079Z,2232.00
2018-08-31T05:41:04.061Z,2292.00
2018-08-31T05:42:04.098Z,2324.00
2018-08-31T05:43:04.043Z,2436.00
2018-08-31T05:44:04.040Z,2544.00
2018-08-31T05:45:04.022Z,2516.00
2018-08-31T05:46:04.012Z,2432.00
2018-08-31T05:47:04.015Z,2388.00
2018-08-31T05:48:04.012Z,2292.00
2018-08-31T05:49:03.980Z,2208.00
2018-08-31T05:50:03.967Z,2160.00
2018-08-31T05:51:03.957Z,2208.00
2018-08-31T05:52:03.959Z,2288.00
2018-08-31T05:53:03.935Z,2352.00
2018-08-31T05:54:03.956Z,2376.00
2018-08-31T05:55:03.913Z,2304.00
2018-08-31T05:56:03.904Z,2212.00
2018-08-31T05:57:03.906Z,2172.00
2018-08-31T05:58:03.882Z,2212.00
2018-08-31T05:59:03.871Z,2300.00
2018-08-31T06:00:03.888Z,2336.00
2018-08-31T06:01:03.851Z,2264.00
2018-08-31T06:02:03.886Z,2108.00
2018-08-31T06:03:03.830Z,1940.00
2018-08-31T06:04:03.819Z,1792.00
2018-08-31T06:05:03.809Z,1656.00
2018-08-31T06:06:03.819Z,1552.00
2018-08-31T06:07:03.811Z,1488.00
2018-08-31T06:08:03.776Z,1432.00
2018-08-31T06:09:03.769Z,1328.00
2018-08-31T06:10:03.759Z,1236.00
2018-08-31T06:11:03.742Z,1140.00
2018-08-31T06:12:07.048Z,1060.00
2018-08-31T06:13:03.739Z,996.00
2018-08-31T06:14:03.715Z,996.00
2018-08-31T06:15:03.702Z,988.00
2018-08-31T06:16:03.703Z,976.00
2018-08-31T06:17:03.690Z,944.00
2018-08-31T06:18:03.720Z,992.00
2018-08-31T06:19:03.670Z,1072.00
2018-08-31T06:20:03.651Z,1116.00
2018-08-31T06:21:03.681Z,1176.00
2018-08-31T06:22:03.628Z,1248.00
2018-08-31T06:23:03.637Z,1352.00
2018-08-31T06:24:03.646Z,1448.00
2018-08-31T06:25:03.596Z,1596.00
2018-08-31T06:26:03.583Z,1640.00
2018-08-31T06:27:03.647Z,1768.00
2018-08-31T06:28:03.576Z,2000.00
2018-08-31T06:29:03.555Z,2276.00
2018-08-31T06:30:03.567Z,2556.00
2018-08-31T06:31:03.530Z,2840.00
2018-08-31T06:32:03.521Z,3140.00
2018-08-31T06:33:03.525Z,3336.00
2018-08-31T06:34:03.498Z,3372.00
2018-08-31T06:35:03.488Z,3364.00
2018-08-31T06:36:03.506Z,3392.00
2018-08-31T06:37:03.505Z,3468.00
2018-08-31T06:38:03.470Z,3688.00
2018-08-31T06:39:03.445Z,3972.00
2018-08-31T06:40:03.440Z,4204.00
2018-08-31T06:41:03.424Z,4384.00
2018-08-31T06:42:03.454Z,4432.00
2018-08-31T06:43:03.461Z,4432.00
2018-08-31T06:44:03.392Z,4352.00
2018-08-31T06:45:03.383Z,4200.00
2018-08-31T06:46:03.372Z,3976.00
2018-08-31T06:47:03.360Z,3748.00
2018-08-31T06:48:03.349Z,3580.00
2018-08-31T06:49:03.385Z,3472.00
2018-08-31T06:50:03.329Z,3436.00
2018-08-31T06:51:03.318Z,3432.00
2018-08-31T06:52:03.309Z,3396.00
2018-08-31T06:53:03.295Z,3272.00
2018-08-31T06:54:03.298Z,3172.00
2018-08-31T06:55:03.314Z,3084.00
2018-08-31T06:56:03.263Z,3028.00
2018-08-31T06:57:03.253Z,3020.00
2018-08-31T06:58:03.242Z,3012.00
2018-08-31T06:59:03.244Z,2972.00
2018-08-31T07:00:03.221Z,2928.00
2018-08-31T07:01:03.238Z,2876.00
2018-08-31T07:02:03.199Z,2796.00
2018-08-31T07:03:03.194Z,2796.00
2018-08-31T07:04:03.191Z,2892.00
2018-08-31T07:05:03.166Z,3008.00
2018-08-31T07:06:03.158Z,3148.00
2018-08-31T07:07:03.182Z,3276.00
2018-08-31T07:08:03.168Z,3344.00
2018-08-31T07:09:03.141Z,3412.00
2018-08-31T07:10:03.114Z,3556.00
2018-08-31T07:11:03.101Z,3744.00
2018-08-31T07:12:03.093Z,3940.00
2018-08-31T07:13:03.080Z,4132.00
2018-08-31T07:14:03.124Z,4308.00
2018-08-31T07:15:03.084Z,4404.00
2018-08-31T07:16:03.083Z,4368.00
2018-08-31T07:17:03.039Z,4204.00
2018-08-31T07:18:03.028Z,4012.00
2018-08-31T07:19:03.032Z,3816.00
2018-08-31T07:20:03.006Z,3772.00
2018-08-31T07:21:02.995Z,3880.00
2018-08-31T07:22:03.000Z,4168.00
2018-08-31T07:23:02.975Z,4516.00
2018-08-31T07:24:02.994Z,4896.00
2018-08-31T07:25:02.956Z,5280.00
2018-08-31T07:26:02.944Z,5572.00
2018-08-31T07:27:02.931Z,5776.00
2018-08-31T07:28:02.936Z,5788.00
2018-08-31T07:29:02.910Z,5636.00
2018-08-31T07:30:02.912Z,5204.00
2018-08-31T07:31:02.887Z,4604.00
2018-08-31T07:32:02.904Z,3904.00
2018-08-31T07:33:02.866Z,3424.00
2018-08-31T07:34:02.869Z,3060.00
2018-08-31T07:35:02.862Z,2908.00
2018-08-31T07:36:02.833Z,2888.00
2018-08-31T07:37:02.823Z,2876.00
2018-08-31T07:38:02.812Z,2848.00
2018-08-31T07:39:02.803Z,2844.00
2018-08-31T07:40:02.844Z,2856.00
2018-08-31T07:41:02.782Z,2912.00
2018-08-31T07:42:02.773Z,3008.00
2018-08-31T07:43:02.765Z,3128.00
2018-08-31T07:44:02.749Z,3232.00
2018-08-31T07:45:02.751Z,3236.00
2018-08-31T07:46:02.747Z,3260.00
2018-08-31T07:47:02.755Z,3348.00
2018-08-31T07:48:02.709Z,3448.00
2018-08-31T07:49:02.696Z,3508.00
2018-08-31T07:50:02.701Z,3460.00
2018-08-31T07:51:02.674Z,3420.00
2018-08-31T07:52:02.663Z,3384.00
2018-08-31T07:53:02.681Z,3404.00
2018-08-31T07:54:02.642Z,3348.00
2018-08-31T07:55:02.647Z,3300.00
2018-08-31T07:56:02.620Z,3220.00
2018-08-31T07:57:02.611Z,3176.00
2018-08-31T07:58:02.601Z,3080.00
2018-08-31T07:59:02.613Z,3012.00
2018-08-31T08:00:02.593Z,2964.00
2018-08-31T08:01:02.578Z,2976.00
2018-08-31T08:02:02.557Z,3020.00
2018-08-31T08:03:02.546Z,3124.00
2018-08-31T08:04:02.536Z,3200.00
2018-08-31T08:05:02.565Z,3208.00
2018-08-31T08:06:02.534Z,3236.00
2018-08-31T08:07:02.507Z,3292.00
2018-08-31T08:08:02.496Z,3388.00
2018-08-31T08:09:02.483Z,3460.00
2018-08-31T08:10:02.497Z,3524.00
2018-08-31T08:11:02.462Z,3516.00
2018-08-31T08:12:02.469Z,3608.00
2018-08-31T08:13:02.477Z,3692.00
2018-08-31T08:14:02.484Z,3792.00
2018-08-31T08:15:02.460Z,3820.00
2018-08-31T08:16:02.448Z,3820.00
2018-08-31T08:17:02.415Z,3884.00
2018-08-31T08:18:02.417Z,3900.00
2018-08-31T08:19:02.445Z,3900.00
2018-08-31T08:20:02.368Z,3988.00
2018-08-31T08:21:02.393Z,4032.00
2018-08-31T08:22:02.352Z,4064.00
2018-08-31T08:23:03.258Z,4156.00
2018-08-31T08:24:02.389Z,4228.00
2018-08-31T08:25:02.314Z,4304.00
2018-08-31T08:26:02.332Z,4396.00
2018-08-31T08:27:02.309Z,4444.00
2018-08-31T08:28:02.280Z,4552.00
2018-08-31T08:29:02.302Z,4712.00
2018-08-31T08:30:02.262Z,4824.00
2018-08-31T08:31:02.262Z,4872.00
2018-08-31T08:32:02.256Z,4908.00
2018-08-31T08:33:02.230Z,4956.00
2018-08-31T08:34:02.220Z,4992.00
2018-08-31T08:35:02.206Z,4944.00
2018-08-31T08:36:02.258Z,4888.00
2018-08-31T08:37:02.191Z,4828.00
2018-08-31T08:38:02.194Z,4768.00
2018-08-31T08:39:02.164Z,4780.00
2018-08-31T08:40:02.153Z,4632.00
2018-08-31T08:41:02.158Z,4588.00
2018-08-31T08:42:02.146Z,4820.00
2018-08-31T08:43:02.122Z,4140.00
2018-08-31T08:44:02.130Z,4676.00
2018-08-31T08:45:02.112Z,5180.00
2018-08-31T08:46:02.117Z,5068.00
2018-08-31T08:47:02.105Z,3396.00
2018-08-31T08:48:02.086Z,3688.00
2018-08-31T08:49:02.060Z,6176.00
2018-08-31T08:50:02.071Z,6180.00
2018-08-31T08:51:02.067Z,5992.00
2018-08-31T08:52:02.036Z,5672.00
2018-08-31T08:53:02.015Z,5816.00
2018-08-31T08:54:02.020Z,6180.00
2018-08-31T08:55:01.994Z,5804.00
2018-08-31T08:56:02.003Z,5120.00
2018-08-31T08:57:01.971Z,5400.00
2018-08-31T08:58:01.971Z,6060.00
2018-08-31T08:59:01.991Z,6124.00
2018-08-31T09:00:01.953Z,6228.00
2018-08-31T09:01:01.948Z,6440.00
2018-08-31T09:02:01.923Z,6028.00
2018-08-31T09:03:01.909Z,5868.00
2018-08-31T09:04:01.897Z,5832.00
2018-08-31T09:05:01.909Z,5900.00
2018-08-31T09:06:01.903Z,5948.00
2018-08-31T09:07:01.868Z,6128.00
2018-08-31T09:08:01.855Z,6332.00
2018-08-31T09:09:01.845Z,6668.00
2018-08-31T09:10:01.836Z,7016.00
2018-08-31T09:11:01.870Z,7424.00
2018-08-31T09:12:01.891Z,7780.00
2018-08-31T09:13:01.805Z,8020.00
2018-08-31T09:14:01.826Z,8040.00
2018-08-31T09:15:01.801Z,7944.00
2018-08-31T09:16:01.838Z,7776.00
2018-08-31T09:17:01.841Z,7208.00
2018-08-31T09:18:01.866Z,6436.00
2018-08-31T09:19:01.779Z,6028.00
2018-08-31T09:20:01.728Z,6096.00
2018-08-31T09:21:01.718Z,6484.00
2018-08-31T09:22:01.735Z,6996.00
2018-08-31T09:23:01.695Z,7740.00
2018-08-31T09:24:01.708Z,7964.00
2018-08-31T09:25:01.679Z,7920.00
2018-08-31T09:26:01.663Z,7736.00
2018-08-31T09:27:01.666Z,7600.00
2018-08-31T09:28:01.641Z,7684.00
2018-08-31T09:29:01.632Z,7828.00
2018-08-31T09:30:01.645Z,7704.00
2018-08-31T09:31:01.609Z,7212.00
2018-08-31T09:32:01.610Z,6664.00
2018-08-31T09:33:01.587Z,5992.00
2018-08-31T09:34:01.576Z,5248.00
2018-08-31T09:35:01.568Z,5096.00
2018-08-31T09:36:01.580Z,5020.00
2018-08-31T09:37:01.571Z,5228.00
2018-08-31T09:38:01.544Z,5284.00
2018-08-31T09:39:01.522Z,5288.00
2018-08-31T09:40:01.511Z,5192.00
2018-08-31T09:41:01.498Z,5572.00
2018-08-31T09:42:01.501Z,6392.00
2018-08-31T09:43:01.479Z,7396.00
2018-08-31T09:44:01.511Z,7308.00
2018-08-31T09:45:01.458Z,6416.00
2018-08-31T09:46:01.465Z,5308.00
2018-08-31T09:47:01.474Z,4624.00
2018-08-31T09:48:01.438Z,4388.00
2018-08-31T09:49:01.413Z,4288.00
2018-08-31T09:50:01.426Z,4284.00
2018-08-31T09:51:01.912Z,4564.00
2018-08-31T09:52:01.382Z,4784.00
2018-08-31T09:53:01.403Z,4596.00
2018-08-31T09:54:01.385Z,4368.00
2018-08-31T09:55:01.353Z,4656.00
2018-08-31T09:56:01.339Z,5448.00
2018-08-31T09:57:01.328Z,6180.00
2018-08-31T09:58:01.330Z,6700.00
2018-08-31T09:59:01.317Z,7048.00
2018-08-31T10:00:01.325Z,7096.00
2018-08-31T10:01:01.289Z,6876.00
2018-08-31T10:02:01.274Z,6540.00
2018-08-31T10:03:01.277Z,6204.00
2018-08-31T10:04:01.256Z,5952.00
2018-08-31T10:05:01.241Z,6004.00
2018-08-31T10:06:01.253Z,6056.00
2018-08-31T10:07:01.222Z,6156.00
2018-08-31T10:08:01.225Z,6316.00
2018-08-31T10:09:01.200Z,6636.00
2018-08-31T10:10:01.187Z,7160.00
2018-08-31T10:11:01.177Z,7620.00
2018-08-31T10:12:01.183Z,7920.00
2018-08-31T10:13:01.193Z,8136.00
2018-08-31T10:14:01.143Z,8272.00
2018-08-31T10:15:01.135Z,8248.00
2018-08-31T10:16:01.122Z,8216.00
2018-08-31T10:17:01.111Z,8276.00
2018-08-31T10:18:01.113Z,8340.00
2018-08-31T10:19:01.113Z,8452.00
2018-08-31T10:20:01.080Z,8576.00
2018-08-31T10:21:01.068Z,8584.00
2018-08-31T10:22:01.056Z,8760.00
2018-08-31T10:23:01.058Z,9076.00
2018-08-31T10:24:01.038Z,9408.00
2018-08-31T10:25:01.048Z,9712.00
2018-08-31T10:26:01.051Z,9876.00
2018-08-31T10:27:01.003Z,10168.00
2018-08-31T10:28:01.021Z,10352.00
2018-08-31T10:29:00.988Z,10520.00
2018-08-31T10:30:00.977Z,10624.00
2018-08-31T10:31:00.959Z,10636.00
2018-08-31T10:32:00.960Z,10564.00
2018-08-31T10:33:00.938Z,10412.00
2018-08-31T10:34:00.940Z,10072.00
2018-08-31T10:35:00.914Z,9588.00
2018-08-31T10:36:00.904Z,8452.00
2018-08-31T10:37:00.896Z,7096.00
2018-08-31T10:38:00.898Z,6448.00
2018-08-31T10:39:00.883Z,6084.00
2018-08-31T10:40:00.863Z,5852.00
2018-08-31T10:41:00.885Z,5908.00
2018-08-31T10:42:00.847Z,6180.00
2018-08-31T10:43:00.852Z,6752.00
2018-08-31T10:44:00.963Z,7552.00
2018-08-31T10:45:00.831Z,8520.00
2018-08-31T10:46:00.856Z,9124.00
2018-08-31T10:47:00.838Z,9720.00
2018-08-31T10:48:00.774Z,9880.00
2018-08-31T10:49:00.780Z,9960.00
2018-08-31T10:50:00.789Z,10272.00
2018-08-31T10:51:00.741Z,10596.00
2018-08-31T10:52:00.731Z,10660.00
2018-08-31T10:53:00.722Z,10480.00
2018-08-31T10:54:00.723Z,9852.00
2018-08-31T10:55:00.701Z,9300.00
2018-08-31T10:56:00.719Z,9044.00
2018-08-31T10:57:00.677Z,8888.00
2018-08-31T10:58:00.669Z,9088.00
2018-08-31T10:59:00.673Z,9640.00
2018-08-31T11:00:00.642Z,10204.00
2018-08-31T11:01:00.635Z,10248.00
2018-08-31T11:02:00.640Z,10044.00
2018-08-31T11:03:00.639Z,10084.00
2018-08-31T11:04:00.615Z,10152.00
2018-08-31T11:05:00.590Z,10444.00
2018-08-31T11:06:00.582Z,10640.00
2018-08-31T11:07:00.571Z,10848.00
2018-08-31T11:08:00.560Z,10932.00
2018-08-31T11:09:00.576Z,10724.00
2018-08-31T11:10:00.596Z,10520.00
2018-08-31T11:11:00.525Z,10268.00
2018-08-31T11:12:00.515Z,10216.00
2018-08-31T11:13:00.529Z,10172.00
2018-08-31T11:14:00.526Z,10012.00
2018-08-31T11:15:00.480Z,9984.00
2018-08-31T11:16:00.486Z,10056.00
2018-08-31T11:17:00.466Z,10112.00
2018-08-31T11:18:00.447Z,10252.00
2018-08-31T11:19:00.445Z,10416.00
2018-08-31T11:20:00.441Z,10476.00
2018-08-31T11:21:00.416Z,10436.00
2018-08-31T11:22:00.446Z,10224.00
2018-08-31T11:23:00.397Z,9740.00
2018-08-31T11:24:00.384Z,9224.00
2018-08-31T11:25:00.386Z,8936.00
2018-08-31T11:26:00.374Z,8828.00
2018-08-31T11:27:00.356Z,8984.00
2018-08-31T11:28:00.382Z,9272.00
2018-08-31T11:29:00.331Z,9620.00
2018-08-31T11:30:00.334Z,9876.00
2018-08-31T11:31:00.310Z,10048.00
2018-08-31T11:32:00.297Z,10336.00
2018-08-31T11:33:00.302Z,10700.00
2018-08-31T11:34:00.304Z,10912.00
2018-08-31T11:35:00.673Z,11156.00
2018-08-31T11:36:00.255Z,11344.00
2018-08-31T11:37:00.288Z,11628.00
2018-08-31T11:38:00.234Z,11968.00
2018-08-31T11:39:00.221Z,12048.00
2018-08-31T11:40:00.262Z,12212.00
2018-08-31T11:41:00.200Z,12300.00
2018-08-31T11:42:00.192Z,12312.00
2018-08-31T11:43:00.181Z,12108.00
2018-08-31T11:44:00.167Z,12004.00
2018-08-31T11:45:00.205Z,11992.00
2018-08-31T11:46:00.148Z,11900.00
2018-08-31T11:47:00.137Z,11880.00
2018-08-31T11:48:00.131Z,11668.00
2018-08-31T11:49:00.115Z,11400.00
2018-08-31T11:50:00.120Z,11316.00
2018-08-31T11:51:00.134Z,11148.00
2018-08-31T11:52:00.082Z,11056.00
2018-08-31T11:53:00.073Z,11032.00
2018-08-31T11:54:00.061Z,10924.00
2018-08-31T11:55:00.063Z,10804.00
2018-08-31T11:56:00.043Z,10740.00
2018-08-31T11:57:00.070Z,10764.00
2018-08-31T11:58:00.024Z,10804.00
2018-08-31T11:59:00.007Z,10620.00
2018-08-31T12:00:00.011Z,10572.00
2018-08-31T12:01:00.028Z,10600.00
2018-08-31T12:02:00.084Z,10468.00
2018-08-31T12:03:00.000Z,10340.00
2018-08-31T12:03:59.953Z,10148.00
2018-08-31T12:04:59.954Z,9888.00
2018-08-31T12:05:59.935Z,9620.00
2018-08-31T12:06:59.920Z,9416.00
2018-08-31T12:07:59.918Z,9352.00
2018-08-31T12:08:59.967Z,9204.00
2018-08-31T12:09:59.889Z,8992.00
2018-08-31T12:10:59.900Z,8940.00
2018-08-31T12:11:59.868Z,8988.00
2018-08-31T12:12:59.857Z,9288.00
2018-08-31T12:13:59.853Z,9764.00
2018-08-31T12:14:59.888Z,10376.00
2018-08-31T12:15:59.837Z,10696.00
2018-08-31T12:16:59.814Z,10880.00
2018-08-31T12:17:59.803Z,10880.00
2018-08-31T12:18:59.796Z,10616.00
2018-08-31T12:19:59.780Z,10508.00
2018-08-31T12:20:59.843Z,10896.00
2018-08-31T12:21:59.760Z,11308.00
2018-08-31T12:22:59.749Z,11248.00
2018-08-31T12:23:59.811Z,11572.00
2018-08-31T12:24:59.806Z,12008.00
2018-08-31T12:25:59.793Z,12428.00
2018-08-31T12:26:59.877Z,12608.00
2018-08-31T12:27:59.697Z,13268.00
2018-08-31T12:28:59.684Z,13520.00